Terminal Aerodrome Forecast
Issued by NWS

Home | Current Version | Previous Version | Text Only | Print | Product List | Glossary On
Versions: 1 2 3 4 5 6 7 8 9 10 11 12 13 14 15 16
000
FTUS43 KDTX 301720
TAFPTK
TAF
KPTK 301720Z 3018/3118 09015G25KT 3SM SHRA BR OVC006
     FM302000 08011G19KT 2SM SHRA BR OVC006
      TEMPO 3022/3102 2SM TSRA BR BKN004 OVC010CB
     FM310200 06008KT 1SM -DZ BR OVC003
     FM310800 06010KT 1/2SM RA FG OVC003
     FM311000 05006KT 3/4SM -RA BR OVC003
     FM311500 36010KT 3SM -SHRA BR OVC010=

USA.gov is the U.S. government's official web portal to all federal, state and local government web resources and services.